Airfield :
LOGIN :

Register | Disclaimer

   EN    FR    IT 

 










Legend :    VFR   Marginal VFR   IFR   Intensive IFR   Very Intensive IFR
Visi :
Ceiling :
>= 8 km
>= 3000ft
5 to 8 km
1000 to 3000 ft
1500m to 5 km
500 to 1000 ft
800 to 1500m
200 to 500 ft
< 800m
< 200 ft
Symbols :   Thunderstorms  Fog  Heavy snow  Heavy precipitations  Wind > 20 kt
SIGMETs :     Misc.  Thunderstorms  Icing  Turbulence  Mountain Waves  Volcanic Ashes







- Airport Elevation : 26 ft
- IATA code : GLA
- Download approach charts


EGPF - Glasgow

CURRENT METAR :
  • 211050Z AUTO 21012KT 9999 BKN007/// OVC016/// //////TCU 11/10 Q1029

EXPIRED METARs :
  • 211020Z AUTO 22013KT 4900 BR FEW007 BKN012 BKN020 11/10 Q1029
  • 210950Z AUTO 23017KT 4400 -RA SCT016/// BKN021/// OVC026/// //////TCU 11/10 Q1028
  • 210920Z AUTO 23017KT 2500 -RA BKN015/// OVC020/// //////CB 11/10 Q1028 RERA REDZ
  • 210850Z AUTO 22016KT 2600 -RADZ SCT006/// OVC011/// //////CB 10/10 Q1028
  • 210820Z AUTO 22017KT 3100 -RADZ FEW009/// BKN013/// OVC020/// //////TCU 10/10 Q1028

TAF TAF EGPF
Valid from the 21 at 12:00 until the 22 at 12:00 UTC


211059Z 2112/2212 22009KT 9999 SCT010 BKN020
TEMPO 2112/2118 4000 RADZ BKN006
PROB30
TEMPO 2118/2124 8000 -RA BKN014
TEMPO 2200/2212 22020G30KT
TEMPO 2200/2212 BKN014
PROB30
TEMPO 2200/2207 3000 BR BKN006
PROB40
TEMPO 2211/2212 5000 RA
ATIS : +44 141 887 7449
No reported NOTAMs for that airfield.



MET'MAP, your aeronautical weather chart ! - Copyright ORBIFLY December 2007 - Disclaimer

ORBIFLY MET'MAP TEAM :

Programming & Development : Alexandra Zaïnal
Concept & Development : Baudouin d'Aumeries
Co-Development & Prog : Marc-Olivier Méhu
Technical & hardware support : Manuel Goepfert

Contact : metmap@orbifly.com




SOURCES & CREDITS :

   NOAA